Skip Navigation Links Skip Navigation Links

Current Weather

Sikeston Meml Muni, Sikeston, Mo.

For information only: do not use for flight planning or navigation.
Latest weather
Observation time Thursday, January 27, 2022 10:55 PM CST
Local time Thursday, January 27, 2022 10:57 PM CST
Flight conditions Visual Meteorological Conditions
Winds
Wind direction West (270°)
Wind speed 3 mph
Visibility 10 mi.
Sky condition
Ceiling unlimited
Sky clear
Temperature 30°F
Dewpoint 27°F
Altimeter 30.28 in.Hg
Derived measurements
Relative humidity 86%
Wind chill 27°F
Density altitude -1983 ft.
Remarks
Fully automated report.
Automated weather observing station with precipitation discriminator.
Lightning detection system not operating.
METAR KSIK 280455Z AUTO 27003KT 10SM CLR M01/M03 A3028 RMK AO2 TSNO

Settings

Location code

InnerDrive.Weather 4.0.6770.0 Release CLR 4.0.30319.42000
Copyright ©2018 Inner Drive Technology. All rights reserved. Portions Copyright ©1986-2018 David Braverman.

Find weather

Site navigation


Skip Navigation Links

Place info

Page info

PayPal - The safer, easier way to pay online!

Return home.

Copyright ©2022 Inner Drive Technology. Purveyors of fine, hand-crafted computer software. Page printed 2022-01-28T04:57:04 UTC.